Time;durP1;ratioP1;P1;durP2;ratioP2;P2;SDS_P1;SDS_P2;PMS_P1;PMS_P2;Temp;Humidity;BMP_temperature;BMP_pressure;BME280_temperature;BME280_humidity;BME280_pressure;Samples;Min_cycle;Max_cycle;Signal;HPM_P1;HPM_P2
2022/07/21 00:01:33;;;;;;;6.35;2.50;;;;;;;22.86;52.13;100674.81;18294490;32;20094;-56
2022/07/21 00:11:36;;;;;;;6.95;2.67;;;;;;;22.39;53.74;100686.81;18294087;32;20158;-56
2022/07/21 00:21:41;;;;;;;5.75;2.90;;;;;;;22.51;52.84;100688.91;18293969;32;20210;-56
2022/07/21 00:31:44;;;;;;;4.75;2.15;;;;;;;22.24;54.11;100691.91;18293584;32;20098;-56
2022/07/21 00:41:49;;;;;;;8.30;2.87;;;;;;;22.08;54.68;100704.16;18294019;32;20108;-56
2022/07/21 00:51:52;;;;;;;7.07;2.65;;;;;;;21.99;54.90;100702.81;18292694;32;20194;-56
2022/07/21 01:01:57;;;;;;;5.37;2.40;;;;;;;22.06;54.27;100714.03;18292438;32;20128;-56
2022/07/21 01:12:00;;;;;;;5.65;2.45;;;;;;;21.77;54.91;100706.44;18292924;32;20129;-56
2022/07/21 01:22:06;;;;;;;5.72;2.67;;;;;;;21.86;54.71;100710.47;18291455;32;20102;-56
2022/07/21 01:32:09;;;;;;;6.50;2.55;;;;;;;21.79;54.85;100709.00;18291155;32;20489;-56
2022/07/21 01:42:14;;;;;;;6.82;2.78;;;;;;;21.62;55.22;100707.91;18290411;32;20102;-56
2022/07/21 01:52:18;;;;;;;6.28;2.35;;;;;;;21.36;56.06;100704.63;18290428;31;20089;-56
2022/07/21 02:02:22;;;;;;;5.53;2.37;;;;;;;21.29;56.43;100711.97;18289619;32;20146;-56
2022/07/21 02:12:26;;;;;;;5.62;2.10;;;;;;;21.35;56.19;100709.06;18290195;32;20471;-56
2022/07/21 02:22:30;;;;;;;8.43;2.62;;;;;;;21.01;56.99;100712.25;18288431;32;20085;-56
2022/07/21 02:32:33;;;;;;;7.12;2.85;;;;;;;21.02;56.52;100706.03;18293591;32;20106;-56
2022/07/21 02:42:39;;;;;;;5.80;2.55;;;;;;;20.77;56.88;100712.28;18298031;32;20102;-56
2022/07/21 02:52:42;;;;;;;5.82;2.62;;;;;;;20.70;57.56;100711.66;18297629;31;20086;-56
2022/07/21 03:02:47;;;;;;;4.30;2.53;;;;;;;20.46;58.06;100718.81;18296870;32;20112;-56
2022/07/21 03:12:50;;;;;;;6.00;2.22;;;;;;;20.50;57.83;100712.47;18296646;32;20112;-56
2022/07/21 03:22:55;;;;;;;3.08;1.85;;;;;;;20.37;58.63;100718.22;18296076;32;20374;-56
2022/07/21 03:32:59;;;;;;;6.32;2.30;;;;;;;20.47;58.18;100716.09;18296038;32;20129;-56
2022/07/21 03:43:06;;;;;;;6.05;2.20;;;;;;;20.54;58.03;100719.38;18294759;32;20093;-56
2022/07/21 03:53:10;;;;;;;6.72;2.30;;;;;;;20.58;58.04;100722.78;18295352;32;20094;-56
2022/07/21 04:03:14;;;;;;;7.43;3.30;;;;;;;20.73;58.48;100718.66;18289380;31;155928;-56
2022/07/21 04:13:18;;;;;;;4.28;2.55;;;;;;;21.12;57.58;100731.25;18294349;32;20370;-56
2022/07/21 04:23:29;;;;;;;30.27;4.57;;;;;;;21.97;55.49;100729.44;18293959;32;20129;-56
2022/07/21 04:33:32;;;;;;;4.43;2.30;;;;;;;22.49;54.48;100744.00;18293627;32;20446;-56
2022/07/21 04:43:41;;;;;;;5.20;2.40;;;;;;;22.69;54.61;100734.19;18293205;32;20089;-56
2022/07/21 04:53:44;;;;;;;4.57;2.20;;;;;;;23.41;52.77;100735.09;18291651;32;20097;-56
2022/07/21 05:03:49;;;;;;;6.55;2.47;;;;;;;24.09;50.80;100733.41;18292197;32;20093;-56
2022/07/21 05:13:52;;;;;;;6.03;2.17;;;;;;;24.65;48.02;100734.81;18291949;32;20111;-56
2022/07/21 05:23:57;;;;;;;3.92;1.70;;;;;;;25.06;46.83;100736.97;18291363;32;20130;-56
2022/07/21 05:34:00;;;;;;;4.20;1.83;;;;;;;25.49;46.12;100740.72;18291194;32;20089;-56
2022/07/21 05:44:05;;;;;;;6.25;2.40;;;;;;;26.00;45.04;100744.84;18290016;32;20120;-56
2022/07/21 05:54:08;;;;;;;3.75;1.85;;;;;;;26.15;42.81;100743.88;18290071;32;20094;-56
2022/07/21 06:04:13;;;;;;;3.95;1.80;;;;;;;27.05;42.44;100755.25;18342524;32;20167;-56
2022/07/21 06:14:16;;;;;;;5.22;1.85;;;;;;;27.66;38.63;100752.94;18298969;32;20085;-56
2022/07/21 06:24:22;;;;;;;10.20;5.00;;;;;;;28.19;37.57;100745.75;18298555;32;20098;-57
2022/07/21 06:34:25;;;;;;;4.25;1.65;;;;;;;28.88;38.12;100737.19;18298139;32;20093;-57
2022/07/21 06:44:30;;;;;;;8.50;2.20;;;;;;;29.40;37.41;100726.13;18297649;32;20094;-56
2022/07/21 06:54:33;;;;;;;6.32;2.08;;;;;;;30.01;36.75;100734.91;18291324;32;20101;-56
2022/07/21 07:04:38;;;;;;;6.12;2.33;;;;;;;30.87;33.53;100734.31;18281850;32;20429;-56
2022/07/21 07:14:41;;;;;;;5.95;2.20;;;;;;;31.35;29.88;100718.69;18292846;32;20190;-56
2022/07/21 07:24:46;;;;;;;5.45;2.30;;;;;;;32.22;28.23;100728.25;18294303;32;20113;-56
2022/07/21 07:34:49;;;;;;;9.15;2.37;;;;;;;32.94;27.62;100719.19;18294856;32;20102;-57
2022/07/21 07:44:53;;;;;;;6.50;2.28;;;;;;;33.59;27.08;100717.69;18294282;32;20507;-56
2022/07/21 07:54:57;;;;;;;8.93;2.65;;;;;;;33.72;25.70;100711.94;18294177;32;20105;-56
2022/07/21 08:05:09;;;;;;;6.25;2.37;;;;;;;34.39;25.53;100709.09;18294901;32;20123;-56
2022/07/21 08:15:12;;;;;;;5.60;2.15;;;;;;;34.66;23.79;100693.81;18293728;32;20116;-56
2022/07/21 08:25:17;;;;;;;4.82;2.28;;;;;;;35.32;24.71;100690.78;18293115;32;20104;-57
2022/07/21 08:35:20;;;;;;;4.53;2.20;;;;;;;35.40;23.69;100682.69;18292920;32;20101;-56
2022/07/21 08:45:27;;;;;;;9.30;2.42;;;;;;;35.57;22.04;100681.97;18292622;32;20113;-56
2022/07/21 08:55:31;;;;;;;3.95;1.92;;;;;;;35.67;22.93;100666.44;18287013;32;20106;-56
2022/07/21 09:05:36;;;;;;;6.60;2.33;;;;;;;36.22;21.54;100661.56;18291706;32;20116;-57
2022/07/21 09:15:39;;;;;;;5.60;2.03;;;;;;;36.36;21.89;100657.34;18290833;32;20113;-58
2022/07/21 09:25:47;;;;;;;4.57;2.08;;;;;;;35.97;22.25;100637.03;18291306;32;20163;-56
2022/07/21 09:35:58;;;;;;;8.23;2.50;;;;;;;36.28;21.31;100628.28;18288661;32;20097;-56
2022/07/21 09:46:04;;;;;;;3.58;2.03;;;;;;;36.98;20.08;100619.81;18295315;32;20116;-57
2022/07/21 09:56:08;;;;;;;7.70;2.10;;;;;;;37.84;20.13;100600.19;18298879;32;20120;-58
2022/07/21 10:06:13;;;;;;;6.15;1.87;;;;;;;37.17;20.15;100586.81;18298018;32;20158;-56
2022/07/21 10:16:16;;;;;;;4.15;1.90;;;;;;;38.00;19.60;100582.91;18296858;32;20093;-57
2022/07/21 10:26:21;;;;;;;5.60;1.90;;;;;;;37.54;19.18;100587.25;18246093;32;20597;-56
2022/07/21 10:36:44;;;;;;;4.20;1.92;;;;;;;37.18;19.07;100572.22;18297745;32;20158;-56
2022/07/21 10:47:00;;;;;;;5.40;2.10;;;;;;;38.36;17.81;100567.84;18294867;32;20132;-56
2022/07/21 10:57:26;;;;;;;5.75;1.95;;;;;;;38.30;18.65;100553.09;18295914;32;20120;-56
2022/07/21 11:08:13;;;;;;;2.58;1.50;;;;;;;38.61;17.41;100541.25;18348579;32;20098;-56
2022/07/21 11:18:19;;;;;;;3.85;1.87;;;;;;;38.70;17.28;100534.66;18285017;32;20112;-56
2022/07/21 11:28:24;;;;;;;3.77;1.40;;;;;;;39.53;16.75;100525.56;18256871;32;20183;-57
2022/07/21 11:38:27;;;;;;;3.45;1.52;;;;;;;40.49;17.96;100509.88;18294924;32;20093;-57
2022/07/21 11:48:33;;;;;;;8.13;1.90;;;;;;;40.63;14.57;100504.50;18294935;32;20090;-56
2022/07/21 11:58:36;;;;;;;3.30;1.40;;;;;;;40.53;14.43;100487.63;18294220;32;20101;-56
2022/07/21 12:08:48;;;;;;;4.62;1.60;;;;;;;41.00;14.19;100475.06;18323144;31;20090;-56
2022/07/21 12:19:09;;;;;;;4.85;1.50;;;;;;;41.00;14.29;100469.59;18270032;32;20113;-57
2022/07/21 12:29:29;;;;;;;4.10;1.60;;;;;;;40.50;13.69;100456.03;18329591;32;20090;-56
2022/07/21 12:50:03;;;;;;;3.05;1.62;;;;;;;42.11;11.83;100439.31;18292140;32;20094;-56
2022/07/21 13:00:23;;;;;;;3.10;1.52;;;;;;;42.40;11.81;100417.13;18291247;32;20108;-57
2022/07/21 13:10:28;;;;;;;3.50;1.50;;;;;;;43.14;11.38;100405.91;18291248;32;20448;-56
2022/07/21 13:20:32;;;;;;;7.20;1.67;;;;;;;42.71;11.21;100410.09;18291196;32;20101;-56
2022/07/21 13:30:36;;;;;;;4.62;1.40;;;;;;;42.75;12.12;100399.53;18290744;32;20125;-57
2022/07/21 13:40:44;;;;;;;3.53;1.40;;;;;;;42.61;13.89;100396.84;18342645;32;20113;-56
2022/07/21 13:51:09;;;;;;;3.12;1.60;;;;;;;40.31;13.53;100386.47;18290501;32;20097;-56
2022/07/21 14:01:13;;;;;;;4.55;1.60;;;;;;;41.53;12.35;100368.66;18288291;32;20438;-56
2022/07/21 14:11:19;;;;;;;5.00;2.17;;;;;;;41.86;12.31;100365.09;18289233;32;20437;-56
2022/07/21 14:21:22;;;;;;;4.35;1.60;;;;;;;41.31;12.12;100356.00;18286907;32;20102;-57
2022/07/21 14:31:27;;;;;;;5.65;1.80;;;;;;;40.94;12.75;100352.72;18230219;32;20140;-56
2022/07/21 14:41:30;;;;;;;3.87;1.55;;;;;;;40.46;12.98;100350.84;18234121;32;20431;-56
2022/07/21 14:51:36;;;;;;;4.12;1.90;;;;;;;39.91;13.87;100343.34;18233885;32;20109;-56
2022/07/21 15:01:39;;;;;;;4.12;1.70;;;;;;;40.52;12.78;100336.34;18262925;32;20094;-57
2022/07/21 15:11:44;;;;;;;6.78;2.33;;;;;;;41.33;12.58;100329.25;18294348;31;20392;-56
2022/07/21 15:21:47;;;;;;;5.90;1.73;;;;;;;40.38;12.86;100323.69;18295541;32;20094;-56
2022/07/21 15:31:52;;;;;;;3.75;1.80;;;;;;;40.78;13.25;100321.94;18290032;32;20111;-56
2022/07/21 15:41:56;;;;;;;5.10;1.92;;;;;;;39.69;13.07;100310.56;18290898;32;20102;-56
2022/07/21 15:52:01;;;;;;;6.53;1.90;;;;;;;39.34;13.64;100303.09;18293492;32;20434;-56
2022/07/21 16:02:06;;;;;;;5.00;1.85;;;;;;;39.63;13.88;100304.00;18293550;32;20460;-56
2022/07/21 16:12:12;;;;;;;4.40;1.92;;;;;;;39.90;12.76;100293.31;18287506;32;20121;-57
2022/07/21 16:22:15;;;;;;;4.85;2.08;;;;;;;39.64;14.62;100304.87;18290798;32;20093;-56
2022/07/21 16:32:20;;;;;;;4.05;1.98;;;;;;;39.52;14.14;100297.22;18290298;32;20085;-57
2022/07/21 16:42:23;;;;;;;5.78;2.30;;;;;;;39.48;14.80;100295.91;18292415;32;20112;-57
2022/07/21 16:52:27;;;;;;;6.50;2.92;;;;;;;39.35;13.69;100290.31;18291763;32;20468;-57
2022/07/21 17:02:31;;;;;;;4.18;1.90;;;;;;;38.98;15.93;100299.41;18290355;31;20361;-57
2022/07/21 17:12:36;;;;;;;6.85;2.00;;;;;;;38.89;16.43;100299.69;18290577;32;20085;-57
2022/07/21 17:22:40;;;;;;;4.35;2.00;;;;;;;38.25;17.97;100302.91;18291503;32;20850;-57
2022/07/21 17:32:44;;;;;;;6.45;1.60;;;;;;;37.89;19.17;100304.44;18289301;32;20086;-56
2022/07/21 17:42:48;;;;;;;4.57;1.80;;;;;;;37.31;20.74;100296.75;18289087;32;20839;-57
2022/07/21 17:52:53;;;;;;;4.00;1.95;;;;;;;36.52;23.18;100304.00;18340887;32;20112;-56
2022/07/21 18:02:56;;;;;;;7.53;2.45;;;;;;;35.90;24.78;100308.22;18292523;32;20162;-56
2022/07/21 18:13:06;;;;;;;6.65;2.08;;;;;;;35.06;26.85;100308.37;18293016;31;20116;-58
2022/07/21 18:23:11;;;;;;;5.95;2.30;;;;;;;34.44;27.87;100321.16;18287472;31;20098;-57
2022/07/21 18:33:16;;;;;;;5.30;2.45;;;;;;;33.65;29.51;100330.12;18297954;32;20159;-56
2022/07/21 18:43:19;;;;;;;6.68;1.80;;;;;;;33.13;29.70;100331.63;18293688;31;20089;-57
2022/07/21 18:53:24;;;;;;;20.52;3.03;;;;;;;32.40;29.15;100344.06;18288051;31;20098;-56
2022/07/21 19:03:27;;;;;;;9.82;2.47;;;;;;;32.00;31.84;100361.34;18294189;32;20098;-55
2022/07/21 19:13:33;;;;;;;8.13;3.20;;;;;;;31.36;32.23;100372.56;18294260;32;20106;-55
2022/07/21 19:23:36;;;;;;;8.60;2.78;;;;;;;31.14;31.82;100394.19;18293481;32;20108;-55
2022/07/21 19:33:41;;;;;;;8.25;3.03;;;;;;;30.43;31.24;100409.34;18295152;32;20094;-56
2022/07/21 19:43:45;;;;;;;7.93;2.45;;;;;;;30.84;31.16;100420.19;18347139;32;20093;-55
2022/07/21 19:53:50;;;;;;;4.20;1.80;;;;;;;31.11;29.76;100424.13;18294586;32;20105;-56
2022/07/21 20:03:54;;;;;;;6.53;2.20;;;;;;;30.99;29.82;100446.75;18294061;32;20109;-56
2022/07/21 20:13:59;;;;;;;6.35;2.00;;;;;;;30.56;32.13;100446.81;18346904;32;20121;-56
2022/07/21 20:24:03;;;;;;;4.25;2.00;;;;;;;29.63;31.92;100460.78;18290720;32;20097;-57
2022/07/21 20:34:08;;;;;;;7.55;1.87;;;;;;;30.17;31.82;100460.03;18288896;32;20109;-55
2022/07/21 20:44:11;;;;;;;4.10;1.95;;;;;;;29.91;33.00;100463.03;18291772;32;20090;-55
2022/07/21 20:54:16;;;;;;;4.15;1.87;;;;;;;29.61;33.34;100461.91;18288164;32;20389;-56
2022/07/21 21:04:19;;;;;;;6.85;2.10;;;;;;;29.40;33.66;100459.94;18288576;32;20093;-56
2022/07/21 21:14:24;;;;;;;4.60;1.75;;;;;;;29.27;33.18;100459.25;18291792;32;20099;-56
2022/07/21 21:24:27;;;;;;;5.32;2.12;;;;;;;29.07;33.25;100451.81;18286918;32;20090;-55
2022/07/21 21:34:32;;;;;;;6.78;2.15;;;;;;;28.86;34.02;100466.94;18286563;32;20131;-56
2022/07/21 21:44:35;;;;;;;4.82;1.98;;;;;;;28.24;35.80;100478.75;18296945;32;20112;-56
2022/07/21 21:54:40;;;;;;;5.47;2.15;;;;;;;27.82;36.50;100489.00;18326816;32;20429;-56
2022/07/21 22:04:43;;;;;;;5.37;1.80;;;;;;;27.88;36.96;100498.41;18234510;32;20124;-56
2022/07/21 22:14:47;;;;;;;4.60;1.77;;;;;;;27.50;36.99;100501.09;18236177;32;20128;-56
2022/07/21 22:24:51;;;;;;;5.28;2.22;;;;;;;27.20;37.60;100506.84;18236939;32;20112;-56
2022/07/21 22:34:55;;;;;;;6.82;1.85;;;;;;;26.96;38.48;100513.81;18235301;32;20098;-56
2022/07/21 22:44:59;;;;;;;5.65;1.90;;;;;;;26.56;39.58;100513.88;18235338;32;20113;-56
2022/07/21 22:55:04;;;;;;;5.25;1.90;;;;;;;26.29;39.57;100520.97;18234775;32;20090;-56
2022/07/21 23:05:08;;;;;;;3.72;1.77;;;;;;;26.01;40.71;100527.25;18235512;32;20098;-56
2022/07/21 23:15:13;;;;;;;4.12;1.83;;;;;;;25.60;41.65;100529.81;18234211;32;20112;-56
2022/07/21 23:25:16;;;;;;;7.78;2.17;;;;;;;25.43;41.90;100538.87;18233916;32;20083;-56
2022/07/21 23:35:21;;;;;;;2.83;1.58;;;;;;;25.28;42.50;100547.84;18233453;32;20117;-56
2022/07/21 23:45:26;;;;;;;4.72;2.00;;;;;;;25.12;43.38;100548.81;18233165;32;20133;-56
2022/07/21 23:55:31;;;;;;;3.60;1.98;;;;;;;24.87;43.61;100557.47;18232626;32;20688;-56
